Time;durP1;ratioP1;P1;durP2;ratioP2;P2;SDS_P1;SDS_P2;PMS_P1;PMS_P2;Temp;Humidity;BMP_temperature;BMP_pressure;BME280_temperature;BME280_humidity;BME280_pressure;Samples;Min_cycle;Max_cycle;Signal;HPM_P1;HPM_P2
2022/07/15 00:02:13;;;;;;;1.33;0.45;;;13.30;99.80;;;;;;5038442;28;20805;-72
2022/07/15 00:04:38;;;;;;;0.57;0.40;;;13.30;99.80;;;;;;5052350;28;20056;-72
2022/07/15 00:07:06;;;;;;;0.60;0.30;;;13.40;99.80;;;;;;5039657;28;20124;-72
2022/07/15 00:12:16;;;;;;;1.20;0.38;;;13.40;99.80;;;;;;5036358;28;20587;-72
2022/07/15 00:14:42;;;;;;;1.83;0.60;;;13.50;99.80;;;;;;5034918;28;20055;-72
2022/07/15 00:17:08;;;;;;;2.17;0.45;;;13.40;99.80;;;;;;5031177;28;20517;-72
2022/07/15 00:19:34;;;;;;;3.42;0.50;;;13.50;99.90;;;;;;5034844;28;20041;-72
2022/07/15 00:22:00;;;;;;;2.00;0.35;;;13.50;99.90;;;;;;5032112;28;20482;-72
2022/07/15 00:24:27;;;;;;;1.13;0.43;;;13.50;99.90;;;;;;5036182;28;20088;-72
2022/07/15 00:26:52;;;;;;;1.77;0.38;;;13.60;99.80;;;;;;5017232;28;20037;-72
2022/07/15 00:29:18;;;;;;;1.08;0.30;;;13.60;99.80;;;;;;5034325;28;20037;-72
2022/07/15 00:31:44;;;;;;;1.77;0.50;;;13.60;99.70;;;;;;5053801;28;20032;-72
2022/07/15 00:34:09;;;;;;;1.05;0.50;;;13.60;99.80;;;;;;5041813;28;20120;-72
2022/07/15 00:36:35;;;;;;;1.33;0.60;;;13.60;99.80;;;;;;5043220;28;20037;-73
2022/07/15 00:39:00;;;;;;;1.27;0.40;;;13.50;99.80;;;;;;5039369;28;20044;-72
2022/07/15 00:41:26;;;;;;;1.52;0.40;;;13.60;99.90;;;;;;5033571;28;20406;-73
2022/07/15 00:43:51;;;;;;;1.35;0.43;;;13.50;99.90;;;;;;5041431;28;20045;-72
2022/07/15 00:46:20;;;;;;;5.18;0.30;;;13.50;99.90;;;;;;5044512;28;20033;-72
2022/07/15 00:48:46;;;;;;;0.43;0.20;;;13.50;99.90;;;;;;5043459;28;20067;-73
2022/07/15 00:51:12;;;;;;;0.63;0.30;;;13.50;99.90;;;;;;5035311;28;20029;-72
2022/07/15 00:53:38;;;;;;;0.75;0.30;;;13.50;99.90;;;;;;5039932;28;20033;-72
2022/07/15 00:56:08;;;;;;;1.13;0.43;;;13.40;99.90;;;;;;5039691;28;20053;-72
2022/07/15 00:58:37;;;;;;;1.23;0.52;;;13.40;99.90;;;;;;5036165;28;20939;-72
2022/07/15 01:01:03;;;;;;;1.02;0.40;;;13.50;99.90;;;;;;5040708;28;20041;-72
2022/07/15 01:03:31;;;;;;;0.40;0.22;;;13.50;99.90;;;;;;5038666;28;20052;-72
2022/07/15 01:05:58;;;;;;;1.83;0.60;;;13.50;99.90;;;;;;5037830;28;20261;-72
2022/07/15 01:08:24;;;;;;;2.97;0.50;;;13.50;99.90;;;;;;5017148;28;20037;-72
2022/07/15 01:10:50;;;;;;;2.08;0.63;;;13.50;99.90;;;;;;5020705;28;20086;-72
2022/07/15 01:13:18;;;;;;;0.47;0.40;;;13.40;99.90;;;;;;5037175;28;20136;-72
2022/07/15 01:15:44;;;;;;;2.22;0.40;;;13.50;99.90;;;;;;5019706;28;20083;-73
2022/07/15 01:18:09;;;;;;;2.72;0.60;;;13.50;99.90;;;;;;5040917;28;20041;-72
2022/07/15 01:20:39;;;;;;;0.95;0.38;;;13.50;99.90;;;;;;5036109;28;20084;-72
2022/07/15 01:23:05;;;;;;;0.75;0.43;;;13.60;99.90;;;;;;5046585;28;20127;-72
2022/07/15 01:25:31;;;;;;;2.38;0.68;;;13.60;99.90;;;;;;5019958;28;20128;-73
2022/07/15 01:27:56;;;;;;;2.92;0.57;;;13.60;99.90;;;;;;5037068;28;20544;-73
2022/07/15 01:30:22;;;;;;;0.57;0.50;;;13.60;99.90;;;;;;5040184;28;20039;-73
2022/07/15 01:32:48;;;;;;;0.90;0.60;;;13.60;99.90;;;;;;5039129;28;20033;-73
2022/07/15 01:35:14;;;;;;;2.90;0.70;;;13.60;99.90;;;;;;5034818;28;20044;-73
2022/07/15 01:37:40;;;;;;;2.72;0.70;;;13.60;99.90;;;;;;5039419;28;20041;-73
2022/07/15 01:40:07;;;;;;;1.52;0.70;;;13.60;99.90;;;;;;5054371;28;20071;-72
2022/07/15 01:42:33;;;;;;;0.60;0.40;;;13.60;99.90;;;;;;5035748;28;20049;-73
2022/07/15 01:44:58;;;;;;;2.05;0.60;;;13.70;99.90;;;;;;5036588;28;20536;-73
2022/07/15 01:47:24;;;;;;;1.83;0.60;;;13.70;99.90;;;;;;5037334;28;20032;-73
2022/07/15 01:49:49;;;;;;;4.07;0.50;;;13.70;99.90;;;;;;5040218;28;20068;-73
2022/07/15 01:52:15;;;;;;;1.05;0.52;;;13.60;99.90;;;;;;5041255;28;20033;-73
2022/07/15 01:54:41;;;;;;;1.85;0.73;;;13.60;99.90;;;;;;5034601;28;20598;-73
2022/07/15 01:57:06;;;;;;;3.17;0.55;;;13.60;99.90;;;;;;5036029;28;20047;-73
2022/07/15 01:59:32;;;;;;;2.05;0.38;;;13.60;99.90;;;;;;5036492;28;20041;-73
2022/07/15 02:01:58;;;;;;;1.50;0.40;;;13.60;99.90;;;;;;5036047;28;20041;-73
2022/07/15 02:04:24;;;;;;;0.60;0.40;;;13.60;99.90;;;;;;5035276;28;20045;-73
2022/07/15 02:06:50;;;;;;;1.25;0.43;;;13.60;99.90;;;;;;5039548;28;20040;-73
2022/07/15 02:09:16;;;;;;;0.95;0.50;;;13.60;99.90;;;;;;5038394;28;20049;-73
2022/07/15 02:11:42;;;;;;;4.35;0.57;;;13.60;99.90;;;;;;5032754;28;20154;-73
2022/07/15 02:14:07;;;;;;;1.70;0.57;;;13.60;99.90;;;;;;5035192;28;20141;-73
2022/07/15 02:16:34;;;;;;;2.13;0.30;;;13.60;99.90;;;;;;5021814;28;20415;-73
2022/07/15 02:19:00;;;;;;;2.05;0.75;;;13.60;99.90;;;;;;5041192;28;20052;-72
2022/07/15 02:21:26;;;;;;;2.15;0.63;;;13.60;99.90;;;;;;5040718;28;20042;-73
2022/07/15 02:23:53;;;;;;;2.83;0.50;;;13.60;99.90;;;;;;5038095;28;20070;-73
2022/07/15 02:26:19;;;;;;;1.00;0.50;;;13.50;99.90;;;;;;5041115;28;20502;-73
2022/07/15 02:28:44;;;;;;;1.08;0.60;;;13.50;99.90;;;;;;5036164;28;20094;-72
2022/07/15 02:31:11;;;;;;;3.67;0.70;;;13.50;99.90;;;;;;5041072;28;20028;-73
2022/07/15 02:33:37;;;;;;;0.77;0.30;;;13.40;99.90;;;;;;5042386;28;21029;-72
2022/07/15 02:36:03;;;;;;;1.90;0.52;;;13.40;99.90;;;;;;5036010;28;20505;-72
2022/07/15 02:38:29;;;;;;;2.35;0.40;;;13.30;99.90;;;;;;5038859;28;20033;-73
2022/07/15 02:40:54;;;;;;;1.17;0.60;;;13.10;99.90;;;;;;5039569;28;20513;-72
2022/07/15 02:43:21;;;;;;;0.57;0.45;;;13.10;99.90;;;;;;5040234;28;20455;-72
2022/07/15 02:45:47;;;;;;;2.33;0.80;;;13.00;99.90;;;;;;5038604;28;20044;-72
2022/07/15 02:48:12;;;;;;;0.88;0.47;;;13.00;99.90;;;;;;5033356;28;20076;-72
2022/07/15 02:50:38;;;;;;;2.63;0.47;;;12.90;99.90;;;;;;5042317;28;20037;-72
2022/07/15 02:53:04;;;;;;;1.08;0.50;;;12.90;99.90;;;;;;5020535;28;20083;-72
2022/07/15 02:55:30;;;;;;;3.22;0.77;;;12.90;99.90;;;;;;5034541;28;20073;-72
2022/07/15 02:57:56;;;;;;;2.15;0.55;;;12.80;99.90;;;;;;5053593;28;20032;-73
2022/07/15 03:00:23;;;;;;;2.58;0.52;;;12.80;99.90;;;;;;5038650;28;20112;-72
2022/07/15 03:02:49;;;;;;;2.78;0.70;;;12.80;99.90;;;;;;5038601;28;21780;-72
2022/07/15 03:05:17;;;;;;;0.63;0.45;;;12.80;99.90;;;;;;5038358;28;20053;-72
2022/07/15 03:07:44;;;;;;;1.75;0.80;;;12.80;99.90;;;;;;5036421;28;20036;-72
2022/07/15 03:10:10;;;;;;;0.80;0.43;;;12.70;99.90;;;;;;5037320;28;20036;-72
2022/07/15 03:12:36;;;;;;;1.20;0.45;;;12.70;99.90;;;;;;5016410;28;20045;-72
2022/07/15 03:15:03;;;;;;;1.05;0.52;;;12.60;99.90;;;;;;5035897;28;20072;-72
2022/07/15 03:17:29;;;;;;;1.35;0.50;;;12.60;99.90;;;;;;5033329;28;20446;-72
2022/07/15 03:19:55;;;;;;;0.95;0.57;;;12.60;99.90;;;;;;5041767;28;20037;-72
2022/07/15 03:22:22;;;;;;;1.02;0.30;;;12.50;99.90;;;;;;5021358;28;20041;-72
2022/07/15 03:24:48;;;;;;;1.50;0.60;;;12.60;99.90;;;;;;5040883;28;20044;-72
2022/07/15 03:27:16;;;;;;;0.50;0.50;;;12.60;99.90;;;;;;5018117;28;20294;-72
2022/07/15 03:29:43;;;;;;;1.20;0.50;;;12.60;99.90;;;;;;5033485;28;20044;-72
2022/07/15 03:32:10;;;;;;;2.08;0.65;;;12.60;99.90;;;;;;5036080;28;20787;-72
2022/07/15 03:34:36;;;;;;;3.80;0.60;;;12.60;99.90;;;;;;5037212;28;20041;-73
2022/07/15 03:37:02;;;;;;;1.13;0.50;;;12.60;99.90;;;;;;5020454;28;20067;-72
2022/07/15 03:39:28;;;;;;;2.15;0.50;;;12.60;99.90;;;;;;5033080;28;20524;-72
2022/07/15 03:41:54;;;;;;;0.82;0.40;;;12.60;99.90;;;;;;5031918;28;20045;-72
2022/07/15 03:44:20;;;;;;;0.60;0.30;;;12.60;99.90;;;;;;5033054;28;20047;-72
2022/07/15 03:46:46;;;;;;;2.25;0.80;;;12.60;99.90;;;;;;5035102;28;20078;-72
2022/07/15 03:49:13;;;;;;;3.40;0.60;;;12.60;99.90;;;;;;5036070;28;20045;-73
2022/07/15 03:51:38;;;;;;;0.70;0.50;;;12.60;99.90;;;;;;5031400;28;20038;-72
2022/07/15 03:54:04;;;;;;;1.45;0.52;;;12.60;99.90;;;;;;5034281;28;20048;-72
2022/07/15 03:56:31;;;;;;;2.05;0.38;;;12.50;99.90;;;;;;5037025;28;20769;-72
2022/07/15 03:58:57;;;;;;;0.90;0.22;;;12.50;99.90;;;;;;5034958;28;20448;-72
2022/07/15 04:01:23;;;;;;;1.33;0.43;;;12.40;99.90;;;;;;5032155;28;20041;-72
2022/07/15 04:03:50;;;;;;;0.95;0.50;;;12.40;99.90;;;;;;5037106;28;20083;-72
2022/07/15 04:06:16;;;;;;;1.67;0.30;;;12.30;99.90;;;;;;5041700;28;20041;-72
2022/07/15 04:08:43;;;;;;;1.13;0.35;;;12.30;99.90;;;;;;5038735;28;20041;-72
2022/07/15 04:11:09;;;;;;;1.85;0.40;;;12.30;99.90;;;;;;5038952;28;20082;-72
2022/07/15 04:13:35;;;;;;;2.60;0.40;;;12.30;99.90;;;;;;5045304;28;20505;-72
2022/07/15 04:16:00;;;;;;;0.47;0.28;;;12.30;99.90;;;;;;5039267;28;20044;-72
2022/07/15 04:18:26;;;;;;;3.42;0.73;;;12.30;99.90;;;;;;5045388;28;20047;-73
2022/07/15 04:20:52;;;;;;;0.57;0.20;;;12.30;99.90;;;;;;5057822;28;20059;-72
2022/07/15 04:23:17;;;;;;;3.33;0.80;;;12.30;99.90;;;;;;5022355;28;20056;-72
2022/07/15 04:25:43;;;;;;;0.73;0.30;;;12.30;99.90;;;;;;5037025;28;20138;-73
2022/07/15 04:28:09;;;;;;;1.48;0.50;;;12.30;99.90;;;;;;5022569;28;20406;-72
2022/07/15 04:30:35;;;;;;;0.55;0.40;;;12.30;99.90;;;;;;5040909;28;20127;-72
2022/07/15 04:33:01;;;;;;;0.70;0.35;;;12.40;99.90;;;;;;5038864;28;20187;-72
2022/07/15 04:35:27;;;;;;;2.30;0.75;;;12.40;99.90;;;;;;5038373;28;20036;-72
2022/07/15 04:37:52;;;;;;;0.95;0.55;;;12.40;99.90;;;;;;5036380;28;20030;-72
2022/07/15 04:40:18;;;;;;;0.60;0.35;;;12.50;99.90;;;;;;5041908;28;20045;-72
2022/07/15 04:42:44;;;;;;;1.08;0.52;;;12.50;99.90;;;;;;5023564;28;20041;-72
2022/07/15 04:45:10;;;;;;;1.00;0.57;;;12.50;99.90;;;;;;5041248;28;20472;-72
2022/07/15 04:47:36;;;;;;;0.70;0.40;;;12.50;99.90;;;;;;5038056;28;20041;-72
2022/07/15 04:52:48;;;;;;;3.60;0.55;;;12.60;99.90;;;;;;5038517;28;20041;-72
2022/07/15 04:55:14;;;;;;;0.93;0.40;;;12.60;99.90;;;;;;5041610;28;20041;-72
2022/07/15 04:57:41;;;;;;;1.02;0.30;;;12.70;99.90;;;;;;5035099;28;20052;-72
2022/07/15 05:00:07;;;;;;;1.15;0.40;;;12.80;99.90;;;;;;5041535;28;20506;-72
2022/07/15 05:02:33;;;;;;;0.70;0.45;;;12.80;99.90;;;;;;5041457;28;20041;-72
2022/07/15 05:04:59;;;;;;;1.55;0.30;;;12.80;99.90;;;;;;5039299;28;20036;-72
2022/07/15 05:07:24;;;;;;;0.47;0.22;;;12.90;99.90;;;;;;5056966;28;20094;-73
2022/07/15 05:09:50;;;;;;;0.28;0.10;;;12.90;99.90;;;;;;5038686;28;20128;-72
2022/07/15 05:12:16;;;;;;;0.77;0.40;;;13.00;99.90;;;;;;5038558;28;20044;-72
2022/07/15 05:14:42;;;;;;;1.05;0.47;;;13.00;99.90;;;;;;5056206;28;20111;-72
2022/07/15 05:17:08;;;;;;;0.30;0.20;;;13.10;99.90;;;;;;5024559;28;20041;-72
2022/07/15 05:19:34;;;;;;;1.08;0.50;;;13.10;99.90;;;;;;5040721;28;20048;-72
2022/07/15 05:22:00;;;;;;;1.92;0.70;;;13.10;99.90;;;;;;5036730;28;20037;-72
2022/07/15 05:24:26;;;;;;;0.40;0.32;;;13.10;99.90;;;;;;5038166;28;20529;-73
2022/07/15 05:26:51;;;;;;;0.85;0.32;;;13.20;99.90;;;;;;5036595;28;20591;-72
2022/07/15 05:29:17;;;;;;;1.38;0.30;;;13.30;99.90;;;;;;5038518;28;20079;-72
2022/07/15 05:31:49;;;;;;;0.50;0.28;;;13.30;99.90;;;;;;5035599;28;20092;-73
2022/07/15 05:34:15;;;;;;;0.57;0.30;;;13.30;99.90;;;;;;5039288;28;20830;-73
2022/07/15 05:36:41;;;;;;;0.50;0.30;;;13.30;99.90;;;;;;5039367;28;20118;-72
2022/07/15 05:39:06;;;;;;;0.57;0.22;;;13.40;99.90;;;;;;5038869;28;20494;-72
2022/07/15 05:41:32;;;;;;;0.22;0.22;;;13.50;99.90;;;;;;5039640;28;20148;-73
2022/07/15 05:43:58;;;;;;;0.45;0.20;;;13.60;99.90;;;;;;5053857;28;20406;-73
2022/07/15 05:46:24;;;;;;;1.63;0.17;;;13.70;99.90;;;;;;5037102;28;20041;-73
2022/07/15 05:48:50;;;;;;;0.88;0.20;;;13.80;99.90;;;;;;5056797;28;20056;-72
2022/07/15 05:51:15;;;;;;;0.30;0.10;;;13.80;99.90;;;;;;5035639;28;20049;-72
2022/07/15 05:53:41;;;;;;;0.82;0.32;;;13.90;99.90;;;;;;5034503;28;20144;-73
2022/07/15 05:56:07;;;;;;;0.25;0.10;;;14.00;99.90;;;;;;5038168;28;20064;-72
2022/07/15 05:58:32;;;;;;;1.23;0.30;;;14.00;99.90;;;;;;5036335;28;20043;-73
2022/07/15 06:00:58;;;;;;;0.22;0.10;;;14.00;99.90;;;;;;5021323;28;20044;-72
2022/07/15 06:03:24;;;;;;;1.13;0.30;;;14.00;99.90;;;;;;5035656;28;20128;-73
2022/07/15 06:05:49;;;;;;;0.10;0.10;;;14.00;99.90;;;;;;5038462;28;20375;-73
2022/07/15 06:08:15;;;;;;;1.45;0.30;;;14.10;99.90;;;;;;5038161;28;20583;-73
2022/07/15 06:10:41;;;;;;;0.10;0.10;;;14.20;99.90;;;;;;5039863;28;20043;-73
2022/07/15 06:13:07;;;;;;;0.70;0.10;;;14.30;99.90;;;;;;5037650;28;20148;-72
2022/07/15 06:15:32;;;;;;;0.30;0.20;;;14.70;99.90;;;;;;5038014;28;20139;-73
2022/07/15 06:17:58;;;;;;;0.08;0.08;;;14.90;99.90;;;;;;5033230;28;20116;-82
2022/07/15 06:20:24;;;;;;;0.10;0.10;;;15.10;99.90;;;;;;5038981;28;20044;-72
2022/07/15 06:22:50;;;;;;;0.20;0.10;;;15.30;99.90;;;;;;5055169;28;20040;-73
2022/07/15 06:25:15;;;;;;;0.10;0.00;;;15.30;99.90;;;;;;5035811;28;20039;-72
2022/07/15 06:27:41;;;;;;;0.08;0.05;;;15.30;99.90;;;;;;5037602;28;20071;-73
2022/07/15 06:30:08;;;;;;;0.30;0.10;;;15.30;99.90;;;;;;5020150;28;20049;-73
2022/07/15 06:32:33;;;;;;;0.60;0.17;;;15.30;99.90;;;;;;5033914;28;20525;-73
2022/07/15 06:34:59;;;;;;;0.10;0.10;;;15.30;99.90;;;;;;5021687;28;20039;-73
2022/07/15 06:37:25;;;;;;;1.13;0.32;;;15.30;99.90;;;;;;5037992;28;20452;-73
2022/07/15 06:39:52;;;;;;;0.30;0.10;;;15.30;99.90;;;;;;5038676;28;20082;-73
2022/07/15 06:42:18;;;;;;;0.20;0.10;;;15.30;99.90;;;;;;5033020;28;20041;-73
2022/07/15 06:44:44;;;;;;;0.75;0.25;;;15.40;99.90;;;;;;5036322;28;20130;-72
2022/07/15 06:47:10;;;;;;;1.15;0.32;;;15.60;99.90;;;;;;5039489;28;20045;-73
2022/07/15 06:49:36;;;;;;;0.35;0.13;;;15.90;99.90;;;;;;5032984;28;20040;-72
2022/07/15 06:52:02;;;;;;;0.38;0.25;;;16.50;99.80;;;;;;5037473;28;20459;-73
2022/07/15 06:54:28;;;;;;;0.55;0.20;;;16.80;98.00;;;;;;5034582;28;20049;-73
2022/07/15 06:56:53;;;;;;;4.32;0.47;;;16.90;98.30;;;;;;5032915;28;20478;-72
2022/07/15 06:59:19;;;;;;;0.30;0.10;;;17.30;96.90;;;;;;5037266;28;20060;-72
2022/07/15 07:01:45;;;;;;;0.73;0.20;;;17.70;95.70;;;;;;5041844;28;20045;-74
2022/07/15 07:04:11;;;;;;;0.55;0.17;;;17.60;95.60;;;;;;5037488;28;20240;-74
2022/07/15 07:06:36;;;;;;;0.60;0.10;;;17.30;96.10;;;;;;5038026;28;20033;-73
2022/07/15 07:09:02;;;;;;;0.13;0.10;;;17.00;96.60;;;;;;5036873;28;20087;-73
2022/07/15 07:11:28;;;;;;;0.17;0.17;;;16.90;97.40;;;;;;5038288;28;20041;-73
2022/07/15 07:13:54;;;;;;;0.82;0.17;;;16.70;97.70;;;;;;5031976;28;20092;-73
2022/07/15 07:16:19;;;;;;;0.17;0.13;;;16.70;97.70;;;;;;5035299;28;20124;-73
2022/07/15 07:18:47;;;;;;;0.22;0.10;;;16.70;98.20;;;;;;5034151;28;20113;-72
2022/07/15 07:21:13;;;;;;;0.43;0.20;;;16.60;98.10;;;;;;5035239;28;20049;-72
2022/07/15 07:23:39;;;;;;;0.40;0.20;;;16.70;98.00;;;;;;5012927;28;20148;-72
2022/07/15 07:26:06;;;;;;;1.10;0.20;;;16.60;97.60;;;;;;5036235;28;20040;-73
2022/07/15 07:28:32;;;;;;;0.52;0.20;;;16.60;97.70;;;;;;5016137;28;20568;-74
2022/07/15 07:30:59;;;;;;;0.35;0.10;;;16.70;97.30;;;;;;5035861;28;20513;-74
2022/07/15 07:33:25;;;;;;;0.50;0.20;;;16.70;96.60;;;;;;5034018;28;20029;-74
2022/07/15 07:35:51;;;;;;;0.43;0.10;;;16.70;96.60;;;;;;5036335;28;20048;-73
2022/07/15 07:38:17;;;;;;;0.52;0.10;;;16.70;97.00;;;;;;5031828;28;20036;-73
2022/07/15 07:40:43;;;;;;;0.10;0.10;;;16.80;96.60;;;;;;5034229;28;20033;-73
2022/07/15 07:43:09;;;;;;;0.00;0.00;;;16.90;96.00;;;;;;5037081;28;20048;-73
2022/07/15 07:45:35;;;;;;;0.20;0.17;;;16.80;95.70;;;;;;5041402;28;20454;-73
2022/07/15 07:48:01;;;;;;;1.27;0.47;;;16.70;95.80;;;;;;5037618;28;20594;-73
2022/07/15 07:50:27;;;;;;;0.55;0.10;;;16.80;96.00;;;;;;5037804;28;20513;-73
2022/07/15 07:52:53;;;;;;;2.13;0.20;;;16.70;95.60;;;;;;5037195;28;20039;-73
2022/07/15 07:55:19;;;;;;;0.60;0.13;;;16.80;95.90;;;;;;5037256;28;20067;-73
2022/07/15 07:57:53;;;;;;;1.15;0.20;;;16.70;95.60;;;;;;5034377;28;20486;-73
2022/07/15 08:00:20;;;;;;;0.95;0.20;;;16.90;95.30;;;;;;5033698;28;20075;-73
2022/07/15 08:02:46;;;;;;;0.03;0.03;;;16.80;95.00;;;;;;5031652;28;20052;-73
2022/07/15 08:05:13;;;;;;;2.17;0.10;;;16.80;95.20;;;;;;5036343;28;20051;-73
2022/07/15 08:07:40;;;;;;;2.38;0.20;;;16.80;95.40;;;;;;5035210;28;20079;-74
2022/07/15 08:10:06;;;;;;;0.28;0.20;;;16.90;94.90;;;;;;5036964;28;20049;-74
2022/07/15 08:12:32;;;;;;;0.08;0.08;;;17.10;94.90;;;;;;5034122;28;20075;-74
2022/07/15 08:14:59;;;;;;;0.17;0.10;;;17.20;94.70;;;;;;5041113;28;20376;-74
2022/07/15 08:17:25;;;;;;;0.03;0.03;;;17.40;93.90;;;;;;5036520;28;20116;-74
2022/07/15 08:19:50;;;;;;;1.15;0.22;;;17.30;93.60;;;;;;5033890;28;20473;-74
2022/07/15 08:22:16;;;;;;;0.25;0.10;;;17.20;93.90;;;;;;5038174;28;20037;-74
2022/07/15 08:24:41;;;;;;;0.32;0.10;;;17.20;93.90;;;;;;5036705;28;20074;-81
2022/07/15 08:27:08;;;;;;;0.40;0.10;;;17.10;93.50;;;;;;5035166;28;20045;-70
2022/07/15 08:29:34;;;;;;;0.08;0.08;;;16.90;93.40;;;;;;5039737;28;20044;-75
2022/07/15 08:32:00;;;;;;;0.28;0.20;;;16.80;93.50;;;;;;5031454;28;20398;-73
2022/07/15 08:34:26;;;;;;;0.20;0.10;;;16.80;93.90;;;;;;5034558;28;20044;-74
2022/07/15 08:36:51;;;;;;;0.10;0.10;;;16.80;93.80;;;;;;5035546;28;20102;-73
2022/07/15 08:39:17;;;;;;;0.20;0.10;;;16.70;93.90;;;;;;5038236;28;20053;-72
2022/07/15 08:41:42;;;;;;;0.30;0.10;;;16.80;94.00;;;;;;5037107;28;20115;-73
2022/07/15 08:44:08;;;;;;;0.00;0.00;;;17.00;93.30;;;;;;5036540;28;20629;-74
2022/07/15 08:46:35;;;;;;;0.15;0.08;;;17.20;93.40;;;;;;5035676;28;20128;-74
2022/07/15 08:49:08;;;;;;;0.45;0.45;;;17.30;93.20;;;;;;5036971;28;20497;-73
2022/07/15 08:51:38;;;;;;;0.15;0.05;;;17.40;91.70;;;;;;5035197;28;20552;-74
2022/07/15 08:54:05;;;;;;;0.63;0.43;;;17.40;92.10;;;;;;5037627;28;20032;-74
2022/07/15 08:56:32;;;;;;;0.03;0.00;;;17.40;92.00;;;;;;5038203;28;20037;-73
2022/07/15 08:58:58;;;;;;;1.65;0.00;;;17.30;91.80;;;;;;5037554;28;20053;-74
2022/07/15 09:01:24;;;;;;;0.35;0.00;;;17.20;92.20;;;;;;5041777;28;20063;-74
2022/07/15 09:03:49;;;;;;;0.20;0.10;;;17.20;92.50;;;;;;5039593;28;20044;-74
2022/07/15 09:06:51;;;;;;;0.10;0.10;;;17.10;92.20;;;;;;5040110;28;20489;-74
2022/07/15 09:09:32;;;;;;;0.20;0.10;;;17.10;90.80;;;;;;4984916;28;20588;-73
2022/07/15 09:12:07;;;;;;;0.17;0.10;;;17.00;91.80;;;;;;5035385;28;21565;-73
2022/07/15 09:14:35;;;;;;;1.02;0.40;;;17.00;92.70;;;;;;5039203;28;20127;-73
2022/07/15 09:17:17;;;;;;;0.00;0.00;;;17.00;93.00;;;;;;5040017;28;20123;-73
2022/07/15 09:19:58;;;;;;;0.08;0.08;;;17.10;92.10;;;;;;5058982;28;20041;-73
2022/07/15 09:22:25;;;;;;;0.10;0.00;;;17.10;91.60;;;;;;5057441;28;20036;-74
2022/07/15 09:25:00;;;;;;;0.47;0.00;;;17.10;92.40;;;;;;5041374;28;20099;-74
2022/07/15 09:27:31;;;;;;;2.55;0.22;;;17.20;92.10;;;;;;5039707;28;20048;-73
2022/07/15 09:36:01;;;;;;;0.00;0.00;;;17.60;91.30;;;;;;5038145;28;20176;-71
2022/07/15 09:38:40;;;;;;;0.10;0.10;;;17.60;90.60;;;;;;5033956;28;20717;-73
2022/07/15 09:41:11;;;;;;;0.10;0.10;;;17.50;90.60;;;;;;5023049;28;20036;-73
2022/07/15 09:44:06;;;;;;;0.43;0.03;;;17.40;90.70;;;;;;5036160;28;20033;-73
2022/07/15 09:46:50;;;;;;;0.08;0.00;;;17.30;90.20;;;;;;5013534;28;20974;-73
2022/07/15 09:49:26;;;;;;;0.32;0.10;;;17.20;88.70;;;;;;5035547;28;20056;-72
2022/07/15 09:52:08;;;;;;;2.28;0.30;;;17.20;90.90;;;;;;5032215;28;20033;-73
2022/07/15 09:54:35;;;;;;;0.00;0.00;;;17.10;90.50;;;;;;5036332;28;20151;-73
2022/07/15 09:57:04;;;;;;;0.35;0.10;;;17.10;90.80;;;;;;5039865;28;20151;-73
2022/07/15 09:59:30;;;;;;;2.90;0.35;;;17.10;90.80;;;;;;5035197;28;20684;-72
2022/07/15 10:01:58;;;;;;;0.35;0.20;;;17.10;91.00;;;;;;5039141;28;20390;-70
2022/07/15 10:04:26;;;;;;;0.10;0.10;;;17.20;91.20;;;;;;5040702;28;20052;-73
2022/07/15 10:06:55;;;;;;;0.00;0.00;;;17.30;90.90;;;;;;5051136;28;20056;-72
2022/07/15 10:09:23;;;;;;;0.00;0.00;;;17.40;91.10;;;;;;5037593;28;20048;-73
2022/07/15 10:11:52;;;;;;;0.13;0.03;;;17.50;90.70;;;;;;5015599;28;20037;-73
2022/07/15 10:14:37;;;;;;;0.00;0.00;;;17.60;90.50;;;;;;5032382;28;20146;-73
2022/07/15 10:17:21;;;;;;;2.85;0.10;;;17.70;90.80;;;;;;5031539;28;20487;-73
2022/07/15 10:20:38;;;;;;;0.22;0.10;;;17.80;90.50;;;;;;5054208;28;20076;-73
2022/07/15 10:23:16;;;;;;;;;;;17.90;88.50;;;;;;5027792;28;20167;-73
2022/07/15 10:25:55;;;;;;;0.20;0.10;;;18.00;85.50;;;;;;5034989;28;19962;-72
2022/07/15 10:28:46;;;;;;;1.52;0.10;;;18.10;90.30;;;;;;5036751;28;20071;-73
2022/07/15 10:31:16;;;;;;;0.10;0.10;;;18.10;89.80;;;;;;5020937;28;20474;-73
2022/07/15 10:34:02;;;;;;;0.10;0.00;;;18.30;90.10;;;;;;5039550;28;20041;-73
2022/07/15 10:36:59;;;;;;;0.10;0.10;;;18.30;90.30;;;;;;5036483;28;20045;-73
2022/07/15 10:39:51;;;;;;;0.10;0.10;;;18.30;85.10;;;;;;5030478;28;20534;-73
2022/07/15 10:42:18;;;;;;;0.65;0.10;;;18.40;85.00;;;;;;5021546;28;20041;-74
2022/07/15 10:44:59;;;;;;;0.08;0.08;;;18.30;88.50;;;;;;5035849;28;20040;-73
2022/07/15 10:47:25;;;;;;;0.93;0.28;;;18.30;84.60;;;;;;5032117;28;20040;-73
2022/07/15 10:49:51;;;;;;;0.10;0.10;;;18.30;89.20;;;;;;5032293;28;20033;-75
2022/07/15 10:52:19;;;;;;;0.00;0.00;;;18.20;89.30;;;;;;5015463;28;20684;-72
2022/07/15 10:55:03;;;;;;;0.00;0.00;;;18.30;89.20;;;;;;5032023;28;20041;-73
2022/07/15 10:57:43;;;;;;;0.30;0.00;;;18.20;86.80;;;;;;5020743;28;20976;-73
2022/07/15 11:00:21;;;;;;;2.17;0.15;;;18.30;88.20;;;;;;5033199;28;20462;-73
2022/07/15 11:03:17;;;;;;;0.45;0.10;;;18.30;87.90;;;;;;5034452;28;20048;-72
2022/07/15 11:05:52;;;;;;;0.20;0.17;;;18.40;84.20;;;;;;5024684;28;20127;-73
2022/07/15 11:08:33;;;;;;;0.05;0.05;;;18.50;85.70;;;;;;5048252;28;20051;-73
2022/07/15 11:11:14;;;;;;;0.68;0.10;;;18.60;86.10;;;;;;5018751;28;20036;-73
2022/07/15 11:13:45;;;;;;;0.20;0.17;;;18.70;86.20;;;;;;5051700;28;20203;-73
2022/07/15 11:16:12;;;;;;;0.00;0.00;;;18.80;84.20;;;;;;5034561;28;20044;-73
2022/07/15 11:18:52;;;;;;;0.20;0.10;;;18.80;85.40;;;;;;5030011;28;20052;-73
2022/07/15 11:21:19;;;;;;;0.43;0.20;;;19.00;82.10;;;;;;5035776;28;20090;-73
2022/07/15 11:23:46;;;;;;;0.00;0.00;;;19.10;84.80;;;;;;5034872;28;20047;-73
2022/07/15 11:26:12;;;;;;;0.22;0.15;;;19.10;83.80;;;;;;5033755;28;20052;-73
2022/07/15 11:28:38;;;;;;;0.45;0.28;;;19.00;83.90;;;;;;5037780;28;20044;-73
2022/07/15 11:31:04;;;;;;;0.10;0.10;;;18.90;83.90;;;;;;5031776;28;20490;-73
2022/07/15 11:33:30;;;;;;;1.73;0.20;;;18.80;84.60;;;;;;5033088;28;20368;-73
2022/07/15 11:35:58;;;;;;;0.10;0.10;;;18.70;85.00;;;;;;5035271;28;20099;-73
2022/07/15 11:38:27;;;;;;;0.20;0.10;;;18.60;85.20;;;;;;5034777;28;20051;-73
2022/07/15 11:46:32;;;;;;;0.43;0.10;;;18.60;85.70;;;;;;5032870;28;20045;-73
2022/07/15 11:48:58;;;;;;;0.00;0.00;;;18.60;85.00;;;;;;5033386;28;20489;-73
2022/07/15 11:51:27;;;;;;;0.10;0.10;;;18.70;84.70;;;;;;5038145;28;20036;-74
2022/07/15 11:53:53;;;;;;;0.10;0.10;;;18.80;84.90;;;;;;5036521;28;20044;-73
2022/07/15 11:56:19;;;;;;;0.65;0.10;;;18.80;84.40;;;;;;5036015;28;20053;-73
2022/07/15 11:58:51;;;;;;;0.20;0.10;;;18.80;84.80;;;;;;5019453;28;20048;-73
2022/07/15 12:01:20;;;;;;;0.00;0.00;;;18.80;84.40;;;;;;5032278;28;20099;-73
2022/07/15 12:03:48;;;;;;;0.75;0.17;;;18.90;85.00;;;;;;5020372;28;20035;-73
2022/07/15 12:06:16;;;;;;;0.10;0.10;;;18.90;84.70;;;;;;5035727;28;20041;-73
2022/07/15 12:08:55;;;;;;;0.10;0.10;;;19.00;85.00;;;;;;5046124;28;20037;-73
2022/07/15 12:11:25;;;;;;;0.70;0.20;;;19.20;84.60;;;;;;5045575;28;20502;-73
2022/07/15 12:13:57;;;;;;;0.10;0.03;;;19.30;84.10;;;;;;5045603;28;20418;-73
2022/07/15 12:16:50;;;;;;;0.10;0.10;;;19.40;82.50;;;;;;5027432;28;20116;-73
2022/07/15 12:19:24;;;;;;;0.20;0.10;;;19.40;74.70;;;;;;5041448;28;20056;-73
2022/07/15 12:21:56;;;;;;;0.57;0.10;;;19.40;79.60;;;;;;5045754;28;20037;-73
2022/07/15 12:24:26;;;;;;;0.20;0.10;;;19.30;80.40;;;;;;5046263;28;20317;-74
2022/07/15 12:26:55;;;;;;;0.22;0.20;;;19.20;79.70;;;;;;5045431;28;20037;-73
2022/07/15 12:29:24;;;;;;;0.30;0.15;;;19.20;80.70;;;;;;5047399;28;20437;-74
2022/07/15 12:31:56;;;;;;;0.88;0.10;;;19.30;79.70;;;;;;5047896;28;20032;-73
2022/07/15 12:34:42;;;;;;;0.55;0.20;;;19.30;79.10;;;;;;5048510;28;20090;-73
2022/07/15 12:37:08;;;;;;;0.65;0.05;;;19.30;80.80;;;;;;5048363;28;20048;-73
2022/07/15 12:39:33;;;;;;;0.20;0.20;;;19.40;81.40;;;;;;5050353;28;20033;-73
2022/07/15 12:42:02;;;;;;;0.20;0.10;;;19.30;81.40;;;;;;5048770;28;20047;-73
2022/07/15 12:44:28;;;;;;;0.63;0.00;;;19.30;81.60;;;;;;5047775;28;20398;-74
2022/07/15 12:46:57;;;;;;;0.10;0.10;;;19.30;81.80;;;;;;5048463;28;20040;-74
2022/07/15 12:49:50;;;;;;;0.40;0.20;;;19.30;81.20;;;;;;5031979;28;20041;-74
2022/07/15 12:52:15;;;;;;;0.20;0.10;;;19.30;78.90;;;;;;5046247;28;20048;-74
2022/07/15 12:54:41;;;;;;;0.10;0.10;;;19.30;81.50;;;;;;5048885;28;20490;-74
2022/07/15 12:57:19;;;;;;;0.22;0.10;;;19.20;81.70;;;;;;5048088;28;20060;-74
2022/07/15 12:59:54;;;;;;;0.00;0.00;;;19.30;79.40;;;;;;5049655;28;20037;-74
2022/07/15 13:02:21;;;;;;;0.35;0.03;;;19.30;81.30;;;;;;5049462;28;20136;-74
2022/07/15 13:04:47;;;;;;;0.00;0.00;;;19.50;80.60;;;;;;5048786;28;20036;-74
2022/07/15 13:07:14;;;;;;;0.00;0.00;;;19.50;79.40;;;;;;5048208;28;20521;-74
2022/07/15 13:09:40;;;;;;;0.20;0.10;;;19.60;80.50;;;;;;5049090;28;20553;-74
2022/07/15 13:12:09;;;;;;;0.90;0.17;;;19.70;80.70;;;;;;5048024;28;20071;-74